Terminal Aerodrome Forecast
Issued by NWS Duluth, MN

Home | Current Version | Previous Version | Graphics & Text | Print | Product List | Glossary On
Versions: 1 2 3 4 5 6 7 8 9 10 11 12 13 14 15 16 17 18 19 20 21
640
FTUS43 KDLH 021134
TAFDLH
TAF
KDLH 021134Z 0212/0312 VRB03KT P6SM FEW070
      TEMPO 0212/0215 BKN070
     FM022000 18007KT P6SM SCT200
     FM030500 25006KT P6SM SCT150
     FM031100 26010KT P6SM SCT110=

USA.gov is the U.S. government's official web portal to all federal, state and local government web resources and services.